sensor_id;sensor_type;location;lat;lon;timestamp;P1;durP1;ratioP1;P2;durP2;ratioP2
20623;SDS011;10471;42.736;23.346;2023-06-10T00:01:58;10.53;;;7.47;;
20623;SDS011;10471;42.736;23.346;2023-06-10T00:04:25;12.70;;;7.70;;
20623;SDS011;10471;42.736;23.346;2023-06-10T00:06:50;9.00;;;7.50;;
20623;SDS011;10471;42.736;23.346;2023-06-10T00:09:16;8.93;;;6.80;;
20623;SDS011;10471;42.736;23.346;2023-06-10T00:11:43;11.83;;;7.40;;
20623;SDS011;10471;42.736;23.346;2023-06-10T00:14:09;11.40;;;6.93;;
20623;SDS011;10471;42.736;23.346;2023-06-10T00:16:35;10.33;;;7.60;;
20623;SDS011;10471;42.736;23.346;2023-06-10T00:19:01;11.53;;;7.47;;
20623;SDS011;10471;42.736;23.346;2023-06-10T00:21:28;12.93;;;7.80;;
20623;SDS011;10471;42.736;23.346;2023-06-10T00:23:55;8.37;;;6.97;;
20623;SDS011;10471;42.736;23.346;2023-06-10T00:26:23;9.90;;;7.23;;
20623;SDS011;10471;42.736;23.346;2023-06-10T00:28:49;10.07;;;7.10;;
20623;SDS011;10471;42.736;23.346;2023-06-10T00:31:15;11.90;;;7.80;;
20623;SDS011;10471;42.736;23.346;2023-06-10T00:33:41;9.80;;;7.67;;
20623;SDS011;10471;42.736;23.346;2023-06-10T00:36:06;9.40;;;7.47;;
20623;SDS011;10471;42.736;23.346;2023-06-10T00:38:31;11.23;;;8.40;;
20623;SDS011;10471;42.736;23.346;2023-06-10T00:40:57;8.77;;;7.60;;
20623;SDS011;10471;42.736;23.346;2023-06-10T00:43:22;11.17;;;7.67;;
20623;SDS011;10471;42.736;23.346;2023-06-10T00:45:48;9.47;;;7.40;;
20623;SDS011;10471;42.736;23.346;2023-06-10T00:48:14;11.87;;;7.60;;
20623;SDS011;10471;42.736;23.346;2023-06-10T00:50:40;10.10;;;7.93;;
20623;SDS011;10471;42.736;23.346;2023-06-10T00:53:05;11.87;;;8.00;;
20623;SDS011;10471;42.736;23.346;2023-06-10T00:55:32;12.10;;;8.03;;
20623;SDS011;10471;42.736;23.346;2023-06-10T00:57:57;9.50;;;8.13;;
20623;SDS011;10471;42.736;23.346;2023-06-10T01:00:24;14.87;;;8.63;;
20623;SDS011;10471;42.736;23.346;2023-06-10T01:02:51;12.23;;;8.47;;
20623;SDS011;10471;42.736;23.346;2023-06-10T01:05:17;11.83;;;8.47;;
20623;SDS011;10471;42.736;23.346;2023-06-10T01:07:47;11.50;;;8.77;;
20623;SDS011;10471;42.736;23.346;2023-06-10T01:10:33;10.10;;;8.57;;
20623;SDS011;10471;42.736;23.346;2023-06-10T01:13:03;12.37;;;9.03;;
20623;SDS011;10471;42.736;23.346;2023-06-10T01:15:32;12.50;;;9.43;;
20623;SDS011;10471;42.736;23.346;2023-06-10T01:18:02;12.57;;;9.20;;
20623;SDS011;10471;42.736;23.346;2023-06-10T01:20:34;12.80;;;9.87;;
20623;SDS011;10471;42.736;23.346;2023-06-10T01:23:04;12.17;;;9.57;;
20623;SDS011;10471;42.736;23.346;2023-06-10T01:25:31;12.20;;;10.07;;
20623;SDS011;10471;42.736;23.346;2023-06-10T01:28:12;13.30;;;10.67;;
20623;SDS011;10471;42.736;23.346;2023-06-10T01:30:52;12.80;;;10.57;;
20623;SDS011;10471;42.736;23.346;2023-06-10T01:33:23;14.83;;;10.83;;
20623;SDS011;10471;42.736;23.346;2023-06-10T01:35:54;13.20;;;10.47;;
20623;SDS011;10471;42.736;23.346;2023-06-10T01:38:22;12.93;;;11.43;;
20623;SDS011;10471;42.736;23.346;2023-06-10T01:40:50;15.63;;;12.23;;
20623;SDS011;10471;42.736;23.346;2023-06-10T01:43:19;16.87;;;12.37;;
20623;SDS011;10471;42.736;23.346;2023-06-10T01:45:45;16.00;;;12.33;;
20623;SDS011;10471;42.736;23.346;2023-06-10T01:48:11;16.50;;;12.80;;
20623;SDS011;10471;42.736;23.346;2023-06-10T01:50:36;16.20;;;13.33;;
20623;SDS011;10471;42.736;23.346;2023-06-10T01:53:03;18.60;;;12.50;;
20623;SDS011;10471;42.736;23.346;2023-06-10T01:55:28;13.87;;;12.10;;
20623;SDS011;10471;42.736;23.346;2023-06-10T01:57:54;15.43;;;11.77;;
20623;SDS011;10471;42.736;23.346;2023-06-10T02:00:19;17.07;;;12.83;;
20623;SDS011;10471;42.736;23.346;2023-06-10T02:02:45;17.20;;;12.37;;
20623;SDS011;10471;42.736;23.346;2023-06-10T02:05:10;16.10;;;11.93;;
20623;SDS011;10471;42.736;23.346;2023-06-10T02:07:36;15.00;;;11.73;;
20623;SDS011;10471;42.736;23.346;2023-06-10T02:10:01;14.93;;;11.50;;
20623;SDS011;10471;42.736;23.346;2023-06-10T02:12:27;15.93;;;12.37;;
20623;SDS011;10471;42.736;23.346;2023-06-10T02:14:52;14.93;;;11.23;;
20623;SDS011;10471;42.736;23.346;2023-06-10T02:17:18;14.37;;;11.17;;
20623;SDS011;10471;42.736;23.346;2023-06-10T02:19:44;13.63;;;10.73;;
20623;SDS011;10471;42.736;23.346;2023-06-10T02:22:18;11.67;;;9.90;;
20623;SDS011;10471;42.736;23.346;2023-06-10T02:24:45;14.37;;;11.40;;
20623;SDS011;10471;42.736;23.346;2023-06-10T02:27:10;13.93;;;10.80;;
20623;SDS011;10471;42.736;23.346;2023-06-10T02:29:36;13.23;;;9.87;;
20623;SDS011;10471;42.736;23.346;2023-06-10T02:32:02;17.03;;;11.50;;
20623;SDS011;10471;42.736;23.346;2023-06-10T02:34:28;16.63;;;11.40;;
20623;SDS011;10471;42.736;23.346;2023-06-10T02:36:54;13.97;;;11.00;;
20623;SDS011;10471;42.736;23.346;2023-06-10T02:39:21;15.17;;;10.83;;
20623;SDS011;10471;42.736;23.346;2023-06-10T02:41:46;14.67;;;11.30;;
20623;SDS011;10471;42.736;23.346;2023-06-10T02:44:12;13.67;;;11.40;;
20623;SDS011;10471;42.736;23.346;2023-06-10T02:46:37;15.10;;;12.23;;
20623;SDS011;10471;42.736;23.346;2023-06-10T02:49:02;14.33;;;11.83;;
20623;SDS011;10471;42.736;23.346;2023-06-10T02:51:28;14.37;;;10.60;;
20623;SDS011;10471;42.736;23.346;2023-06-10T02:53:53;13.30;;;9.87;;
20623;SDS011;10471;42.736;23.346;2023-06-10T02:56:19;15.00;;;11.00;;
20623;SDS011;10471;42.736;23.346;2023-06-10T02:58:45;15.30;;;11.33;;
20623;SDS011;10471;42.736;23.346;2023-06-10T03:01:10;15.40;;;11.47;;
20623;SDS011;10471;42.736;23.346;2023-06-10T03:03:36;17.40;;;12.83;;
20623;SDS011;10471;42.736;23.346;2023-06-10T03:06:05;15.83;;;12.37;;
20623;SDS011;10471;42.736;23.346;2023-06-10T03:08:31;16.43;;;12.60;;
20623;SDS011;10471;42.736;23.346;2023-06-10T03:10:56;15.23;;;13.03;;
20623;SDS011;10471;42.736;23.346;2023-06-10T03:13:22;14.87;;;10.90;;
20623;SDS011;10471;42.736;23.346;2023-06-10T03:15:48;11.47;;;10.07;;
20623;SDS011;10471;42.736;23.346;2023-06-10T03:18:14;12.07;;;9.47;;
20623;SDS011;10471;42.736;23.346;2023-06-10T03:20:40;12.73;;;9.73;;
20623;SDS011;10471;42.736;23.346;2023-06-10T03:23:05;10.63;;;8.73;;
20623;SDS011;10471;42.736;23.346;2023-06-10T03:25:33;10.83;;;8.90;;
20623;SDS011;10471;42.736;23.346;2023-06-10T03:27:59;11.77;;;8.47;;
20623;SDS011;10471;42.736;23.346;2023-06-10T03:30:25;12.60;;;9.07;;
20623;SDS011;10471;42.736;23.346;2023-06-10T03:32:50;11.40;;;9.27;;
20623;SDS011;10471;42.736;23.346;2023-06-10T03:35:15;12.90;;;9.87;;
20623;SDS011;10471;42.736;23.346;2023-06-10T03:37:42;12.53;;;10.03;;
20623;SDS011;10471;42.736;23.346;2023-06-10T03:40:08;16.63;;;11.30;;
20623;SDS011;10471;42.736;23.346;2023-06-10T03:42:34;15.80;;;11.17;;
20623;SDS011;10471;42.736;23.346;2023-06-10T03:45:00;15.27;;;11.40;;
20623;SDS011;10471;42.736;23.346;2023-06-10T03:47:25;16.43;;;11.03;;
20623;SDS011;10471;42.736;23.346;2023-06-10T03:49:51;12.23;;;10.33;;
20623;SDS011;10471;42.736;23.346;2023-06-10T03:54:42;15.57;;;11.27;;
20623;SDS011;10471;42.736;23.346;2023-06-10T03:57:07;13.47;;;10.23;;
20623;SDS011;10471;42.736;23.346;2023-06-10T03:59:33;11.57;;;10.37;;
20623;SDS011;10471;42.736;23.346;2023-06-10T04:01:58;14.77;;;8.97;;
20623;SDS011;10471;42.736;23.346;2023-06-10T04:04:23;9.83;;;8.73;;
20623;SDS011;10471;42.736;23.346;2023-06-10T04:06:49;11.27;;;9.03;;
20623;SDS011;10471;42.736;23.346;2023-06-10T04:09:15;10.97;;;8.37;;
20623;SDS011;10471;42.736;23.346;2023-06-10T04:11:41;9.70;;;8.37;;
20623;SDS011;10471;42.736;23.346;2023-06-10T04:14:07;8.97;;;7.73;;
20623;SDS011;10471;42.736;23.346;2023-06-10T04:16:33;9.10;;;7.57;;
20623;SDS011;10471;42.736;23.346;2023-06-10T04:18:59;10.07;;;8.20;;
20623;SDS011;10471;42.736;23.346;2023-06-10T04:21:25;11.57;;;9.23;;
20623;SDS011;10471;42.736;23.346;2023-06-10T04:23:51;10.73;;;9.20;;
20623;SDS011;10471;42.736;23.346;2023-06-10T04:26:16;11.67;;;8.77;;
20623;SDS011;10471;42.736;23.346;2023-06-10T04:28:45;10.23;;;8.80;;
20623;SDS011;10471;42.736;23.346;2023-06-10T04:31:10;11.60;;;8.70;;
20623;SDS011;10471;42.736;23.346;2023-06-10T04:33:36;12.93;;;9.10;;
20623;SDS011;10471;42.736;23.346;2023-06-10T04:36:02;13.57;;;11.00;;
20623;SDS011;10471;42.736;23.346;2023-06-10T04:38:27;21.23;;;14.40;;
20623;SDS011;10471;42.736;23.346;2023-06-10T04:40:53;18.80;;;12.90;;
20623;SDS011;10471;42.736;23.346;2023-06-10T04:43:18;20.70;;;13.80;;
20623;SDS011;10471;42.736;23.346;2023-06-10T04:45:44;15.23;;;11.93;;
20623;SDS011;10471;42.736;23.346;2023-06-10T04:48:10;13.17;;;11.03;;
20623;SDS011;10471;42.736;23.346;2023-06-10T04:50:36;14.93;;;11.93;;
20623;SDS011;10471;42.736;23.346;2023-06-10T04:53:01;13.73;;;11.50;;
20623;SDS011;10471;42.736;23.346;2023-06-10T04:55:27;13.70;;;10.60;;
20623;SDS011;10471;42.736;23.346;2023-06-10T04:57:52;14.63;;;12.00;;
20623;SDS011;10471;42.736;23.346;2023-06-10T05:00:18;13.67;;;11.73;;
20623;SDS011;10471;42.736;23.346;2023-06-10T05:02:43;14.13;;;11.57;;
20623;SDS011;10471;42.736;23.346;2023-06-10T05:05:09;14.13;;;12.60;;
20623;SDS011;10471;42.736;23.346;2023-06-10T05:07:36;14.27;;;12.77;;
20623;SDS011;10471;42.736;23.346;2023-06-10T05:10:01;16.30;;;12.83;;
20623;SDS011;10471;42.736;23.346;2023-06-10T05:12:28;15.23;;;12.13;;
20623;SDS011;10471;42.736;23.346;2023-06-10T05:14:53;14.67;;;12.70;;
20623;SDS011;10471;42.736;23.346;2023-06-10T05:17:18;16.97;;;14.53;;
20623;SDS011;10471;42.736;23.346;2023-06-10T05:19:44;17.10;;;14.87;;
20623;SDS011;10471;42.736;23.346;2023-06-10T05:22:09;17.87;;;14.97;;
20623;SDS011;10471;42.736;23.346;2023-06-10T05:24:34;19.60;;;15.50;;
20623;SDS011;10471;42.736;23.346;2023-06-10T05:27:00;16.97;;;13.60;;
20623;SDS011;10471;42.736;23.346;2023-06-10T05:29:25;14.90;;;13.10;;
20623;SDS011;10471;42.736;23.346;2023-06-10T05:31:51;17.33;;;12.50;;
20623;SDS011;10471;42.736;23.346;2023-06-10T05:34:16;15.57;;;12.33;;
20623;SDS011;10471;42.736;23.346;2023-06-10T05:36:42;13.33;;;11.63;;
20623;SDS011;10471;42.736;23.346;2023-06-10T05:39:08;11.87;;;10.20;;
20623;SDS011;10471;42.736;23.346;2023-06-10T05:41:34;10.93;;;9.77;;
20623;SDS011;10471;42.736;23.346;2023-06-10T05:44:00;10.77;;;9.37;;
20623;SDS011;10471;42.736;23.346;2023-06-10T05:46:25;13.87;;;10.17;;
20623;SDS011;10471;42.736;23.346;2023-06-10T05:48:50;12.17;;;9.70;;
20623;SDS011;10471;42.736;23.346;2023-06-10T05:51:16;11.93;;;9.57;;
20623;SDS011;10471;42.736;23.346;2023-06-10T05:53:41;13.27;;;9.33;;
20623;SDS011;10471;42.736;23.346;2023-06-10T05:56:06;10.53;;;9.43;;
20623;SDS011;10471;42.736;23.346;2023-06-10T05:58:32;10.67;;;8.60;;
20623;SDS011;10471;42.736;23.346;2023-06-10T06:00:57;12.57;;;9.47;;
20623;SDS011;10471;42.736;23.346;2023-06-10T06:03:23;10.23;;;9.17;;
20623;SDS011;10471;42.736;23.346;2023-06-10T06:05:48;9.80;;;8.43;;
20623;SDS011;10471;42.736;23.346;2023-06-10T06:08:13;11.03;;;9.30;;
20623;SDS011;10471;42.736;23.346;2023-06-10T06:10:42;11.40;;;9.60;;
20623;SDS011;10471;42.736;23.346;2023-06-10T06:13:07;12.27;;;9.20;;
20623;SDS011;10471;42.736;23.346;2023-06-10T06:15:33;12.87;;;9.90;;
20623;SDS011;10471;42.736;23.346;2023-06-10T06:17:58;10.70;;;9.47;;
20623;SDS011;10471;42.736;23.346;2023-06-10T06:20:23;13.53;;;9.67;;
20623;SDS011;10471;42.736;23.346;2023-06-10T06:22:49;11.07;;;9.87;;
20623;SDS011;10471;42.736;23.346;2023-06-10T06:25:14;11.37;;;8.80;;
20623;SDS011;10471;42.736;23.346;2023-06-10T06:27:40;12.57;;;9.93;;
20623;SDS011;10471;42.736;23.346;2023-06-10T06:30:06;10.17;;;8.63;;
20623;SDS011;10471;42.736;23.346;2023-06-10T06:32:32;10.40;;;8.93;;
20623;SDS011;10471;42.736;23.346;2023-06-10T06:34:57;12.93;;;8.53;;
20623;SDS011;10471;42.736;23.346;2023-06-10T06:37:24;12.80;;;8.03;;
20623;SDS011;10471;42.736;23.346;2023-06-10T06:39:50;9.73;;;8.10;;
20623;SDS011;10471;42.736;23.346;2023-06-10T06:42:16;8.87;;;7.17;;
20623;SDS011;10471;42.736;23.346;2023-06-10T06:44:41;7.53;;;5.87;;
20623;SDS011;10471;42.736;23.346;2023-06-10T06:47:07;8.97;;;6.27;;
20623;SDS011;10471;42.736;23.346;2023-06-10T06:49:33;6.97;;;6.27;;
20623;SDS011;10471;42.736;23.346;2023-06-10T06:51:58;7.87;;;7.07;;
20623;SDS011;10471;42.736;23.346;2023-06-10T06:54:23;8.07;;;6.40;;
20623;SDS011;10471;42.736;23.346;2023-06-10T06:56:50;13.73;;;9.07;;
20623;SDS011;10471;42.736;23.346;2023-06-10T06:59:15;11.10;;;9.70;;
20623;SDS011;10471;42.736;23.346;2023-06-10T07:01:42;11.70;;;8.93;;
20623;SDS011;10471;42.736;23.346;2023-06-10T07:04:07;11.63;;;8.53;;
20623;SDS011;10471;42.736;23.346;2023-06-10T07:06:33;11.13;;;7.90;;
20623;SDS011;10471;42.736;23.346;2023-06-10T07:08:58;8.30;;;6.73;;
20623;SDS011;10471;42.736;23.346;2023-06-10T07:11:24;10.00;;;6.80;;
20623;SDS011;10471;42.736;23.346;2023-06-10T07:13:50;9.00;;;6.97;;
20623;SDS011;10471;42.736;23.346;2023-06-10T07:16:15;8.00;;;5.33;;
20623;SDS011;10471;42.736;23.346;2023-06-10T07:18:41;6.90;;;5.80;;
20623;SDS011;10471;42.736;23.346;2023-06-10T07:21:06;6.77;;;5.77;;
20623;SDS011;10471;42.736;23.346;2023-06-10T07:23:31;8.20;;;5.60;;
20623;SDS011;10471;42.736;23.346;2023-06-10T07:25:57;9.07;;;6.80;;
20623;SDS011;10471;42.736;23.346;2023-06-10T07:28:22;7.13;;;6.00;;
20623;SDS011;10471;42.736;23.346;2023-06-10T07:30:47;6.77;;;5.83;;
20623;SDS011;10471;42.736;23.346;2023-06-10T07:33:13;9.70;;;6.03;;
20623;SDS011;10471;42.736;23.346;2023-06-10T07:35:38;5.60;;;4.60;;
20623;SDS011;10471;42.736;23.346;2023-06-10T07:38:03;7.40;;;4.53;;
20623;SDS011;10471;42.736;23.346;2023-06-10T07:40:29;5.33;;;4.30;;
20623;SDS011;10471;42.736;23.346;2023-06-10T07:42:54;6.07;;;4.70;;
20623;SDS011;10471;42.736;23.346;2023-06-10T07:45:20;8.07;;;4.67;;
20623;SDS011;10471;42.736;23.346;2023-06-10T07:47:45;6.37;;;5.20;;
20623;SDS011;10471;42.736;23.346;2023-06-10T07:50:11;5.50;;;4.50;;
20623;SDS011;10471;42.736;23.346;2023-06-10T07:52:36;9.80;;;4.90;;
20623;SDS011;10471;42.736;23.346;2023-06-10T07:55:02;8.03;;;5.00;;
20623;SDS011;10471;42.736;23.346;2023-06-10T07:57:27;8.77;;;5.17;;
20623;SDS011;10471;42.736;23.346;2023-06-10T07:59:53;5.50;;;4.87;;
20623;SDS011;10471;42.736;23.346;2023-06-10T08:02:19;6.83;;;4.83;;
20623;SDS011;10471;42.736;23.346;2023-06-10T08:04:45;6.20;;;4.63;;
20623;SDS011;10471;42.736;23.346;2023-06-10T08:07:10;6.00;;;4.77;;
20623;SDS011;10471;42.736;23.346;2023-06-10T08:09:36;4.50;;;4.10;;
20623;SDS011;10471;42.736;23.346;2023-06-10T08:12:01;5.87;;;4.47;;
20623;SDS011;10471;42.736;23.346;2023-06-10T08:14:27;5.90;;;4.93;;
20623;SDS011;10471;42.736;23.346;2023-06-10T08:16:52;5.67;;;4.30;;
20623;SDS011;10471;42.736;23.346;2023-06-10T08:19:18;4.37;;;3.97;;
20623;SDS011;10471;42.736;23.346;2023-06-10T08:21:43;4.60;;;3.93;;
20623;SDS011;10471;42.736;23.346;2023-06-10T08:24:09;4.37;;;3.93;;
20623;SDS011;10471;42.736;23.346;2023-06-10T08:26:35;5.43;;;3.40;;
20623;SDS011;10471;42.736;23.346;2023-06-10T08:29:00;6.60;;;3.60;;
20623;SDS011;10471;42.736;23.346;2023-06-10T08:31:26;6.37;;;4.03;;
20623;SDS011;10471;42.736;23.346;2023-06-10T08:33:51;4.77;;;4.10;;
20623;SDS011;10471;42.736;23.346;2023-06-10T08:36:16;3.80;;;3.40;;
20623;SDS011;10471;42.736;23.346;2023-06-10T08:38:42;4.40;;;3.47;;
20623;SDS011;10471;42.736;23.346;2023-06-10T08:41:07;4.43;;;3.57;;
20623;SDS011;10471;42.736;23.346;2023-06-10T08:43:45;4.67;;;3.53;;
20623;SDS011;10471;42.736;23.346;2023-06-10T08:46:16;4.57;;;3.73;;
20623;SDS011;10471;42.736;23.346;2023-06-10T08:48:42;5.13;;;3.70;;
20623;SDS011;10471;42.736;23.346;2023-06-10T08:51:11;5.40;;;3.37;;
20623;SDS011;10471;42.736;23.346;2023-06-10T08:53:37;4.83;;;3.70;;
20623;SDS011;10471;42.736;23.346;2023-06-10T08:56:07;5.40;;;3.43;;
20623;SDS011;10471;42.736;23.346;2023-06-10T08:58:35;5.17;;;3.47;;
20623;SDS011;10471;42.736;23.346;2023-06-10T09:01:06;3.53;;;3.23;;
20623;SDS011;10471;42.736;23.346;2023-06-10T09:03:32;4.33;;;3.30;;
20623;SDS011;10471;42.736;23.346;2023-06-10T09:06:00;3.77;;;3.37;;
20623;SDS011;10471;42.736;23.346;2023-06-10T09:08:27;4.17;;;3.20;;
20623;SDS011;10471;42.736;23.346;2023-06-10T09:10:53;3.80;;;3.40;;
20623;SDS011;10471;42.736;23.346;2023-06-10T09:13:18;3.93;;;3.40;;
20623;SDS011;10471;42.736;23.346;2023-06-10T09:15:44;5.47;;;3.53;;
20623;SDS011;10471;42.736;23.346;2023-06-10T09:18:10;4.10;;;3.43;;
20623;SDS011;10471;42.736;23.346;2023-06-10T09:20:38;4.80;;;3.50;;
20623;SDS011;10471;42.736;23.346;2023-06-10T09:23:04;4.00;;;3.40;;
20623;SDS011;10471;42.736;23.346;2023-06-10T09:25:34;6.30;;;3.40;;
20623;SDS011;10471;42.736;23.346;2023-06-10T09:28:02;5.17;;;3.80;;
20623;SDS011;10471;42.736;23.346;2023-06-10T09:32:54;4.13;;;3.43;;
20623;SDS011;10471;42.736;23.346;2023-06-10T09:35:22;4.53;;;3.77;;
20623;SDS011;10471;42.736;23.346;2023-06-10T09:37:49;4.63;;;3.73;;
20623;SDS011;10471;42.736;23.346;2023-06-10T09:40:16;5.10;;;3.60;;
20623;SDS011;10471;42.736;23.346;2023-06-10T09:42:42;6.17;;;3.53;;
20623;SDS011;10471;42.736;23.346;2023-06-10T09:45:07;4.70;;;3.43;;
20623;SDS011;10471;42.736;23.346;2023-06-10T09:47:33;3.67;;;3.10;;
20623;SDS011;10471;42.736;23.346;2023-06-10T09:49:58;5.83;;;3.40;;
20623;SDS011;10471;42.736;23.346;2023-06-10T09:52:24;4.00;;;3.30;;
20623;SDS011;10471;42.736;23.346;2023-06-10T09:54:51;4.17;;;3.53;;
20623;SDS011;10471;42.736;23.346;2023-06-10T09:57:17;4.50;;;3.50;;
20623;SDS011;10471;42.736;23.346;2023-06-10T09:59:43;5.27;;;3.87;;
20623;SDS011;10471;42.736;23.346;2023-06-10T10:02:17;4.87;;;3.73;;
20623;SDS011;10471;42.736;23.346;2023-06-10T10:04:43;4.63;;;3.63;;
20623;SDS011;10471;42.736;23.346;2023-06-10T10:07:10;4.10;;;3.47;;
20623;SDS011;10471;42.736;23.346;2023-06-10T10:09:39;5.70;;;3.57;;
20623;SDS011;10471;42.736;23.346;2023-06-10T10:12:15;5.67;;;3.70;;
20623;SDS011;10471;42.736;23.346;2023-06-10T10:14:47;3.73;;;3.33;;
20623;SDS011;10471;42.736;23.346;2023-06-10T10:17:14;3.60;;;3.30;;
20623;SDS011;10471;42.736;23.346;2023-06-10T10:19:43;3.83;;;3.40;;
20623;SDS011;10471;42.736;23.346;2023-06-10T10:22:26;4.50;;;3.77;;
20623;SDS011;10471;42.736;23.346;2023-06-10T10:24:59;4.03;;;3.43;;
20623;SDS011;10471;42.736;23.346;2023-06-10T10:27:33;7.27;;;3.70;;
20623;SDS011;10471;42.736;23.346;2023-06-10T10:30:02;3.73;;;3.10;;
20623;SDS011;10471;42.736;23.346;2023-06-10T10:33:19;4.00;;;3.57;;
20623;SDS011;10471;42.736;23.346;2023-06-10T10:35:24;5.13;;;3.77;;
20623;SDS011;10471;42.736;23.346;2023-06-10T10:37:54;4.57;;;3.93;;
20623;SDS011;10471;42.736;23.346;2023-06-10T10:40:23;4.13;;;3.70;;
20623;SDS011;10471;42.736;23.346;2023-06-10T10:42:50;5.63;;;3.73;;
20623;SDS011;10471;42.736;23.346;2023-06-10T10:45:16;5.67;;;4.20;;
20623;SDS011;10471;42.736;23.346;2023-06-10T10:47:45;4.40;;;3.60;;
20623;SDS011;10471;42.736;23.346;2023-06-10T10:50:17;5.63;;;4.23;;
20623;SDS011;10471;42.736;23.346;2023-06-10T10:55:24;5.13;;;4.30;;
20623;SDS011;10471;42.736;23.346;2023-06-10T10:57:54;4.27;;;3.87;;
20623;SDS011;10471;42.736;23.346;2023-06-10T11:00:27;4.70;;;4.03;;
20623;SDS011;10471;42.736;23.346;2023-06-10T11:03:04;9.90;;;4.80;;
20623;SDS011;10471;42.736;23.346;2023-06-10T11:08:15;5.53;;;4.23;;
20623;SDS011;10471;42.736;23.346;2023-06-10T11:11:00;4.63;;;4.20;;
20623;SDS011;10471;42.736;23.346;2023-06-10T11:13:41;5.80;;;4.47;;
20623;SDS011;10471;42.736;23.346;2023-06-10T11:16:25;5.07;;;3.77;;
20623;SDS011;10471;42.736;23.346;2023-06-10T11:18:54;4.90;;;4.40;;
20623;SDS011;10471;42.736;23.346;2023-06-10T11:21:21;5.17;;;3.70;;
20623;SDS011;10471;42.736;23.346;2023-06-10T11:23:48;5.57;;;3.47;;
20623;SDS011;10471;42.736;23.346;2023-06-10T11:31:20;6.20;;;3.57;;
20623;SDS011;10471;42.736;23.346;2023-06-10T11:34:05;6.43;;;4.37;;
20623;SDS011;10471;42.736;23.346;2023-06-10T11:36:32;10.33;;;7.23;;
20623;SDS011;10471;42.736;23.346;2023-06-10T11:38:59;4.87;;;3.50;;
20623;SDS011;10471;42.736;23.346;2023-06-10T11:41:29;5.60;;;3.83;;
20623;SDS011;10471;42.736;23.346;2023-06-10T11:43:56;6.60;;;4.77;;
20623;SDS011;10471;42.736;23.346;2023-06-10T11:46:25;6.30;;;4.22;;
20623;SDS011;10471;42.736;23.346;2023-06-10T11:48:54;4.15;;;3.33;;
20623;SDS011;10471;42.736;23.346;2023-06-10T11:51:21;3.77;;;2.97;;
20623;SDS011;10471;42.736;23.346;2023-06-10T11:53:49;3.73;;;3.07;;
20623;SDS011;10471;42.736;23.346;2023-06-10T11:56:25;3.80;;;3.27;;
20623;SDS011;10471;42.736;23.346;2023-06-10T11:58:55;4.00;;;3.13;;
20623;SDS011;10471;42.736;23.346;2023-06-10T12:01:41;3.70;;;3.40;;
20623;SDS011;10471;42.736;23.346;2023-06-10T12:04:09;4.18;;;3.50;;
20623;SDS011;10471;42.736;23.346;2023-06-10T12:09:18;4.13;;;3.73;;
20623;SDS011;10471;42.736;23.346;2023-06-10T12:11:44;5.73;;;3.30;;
20623;SDS011;10471;42.736;23.346;2023-06-10T12:14:10;6.00;;;3.47;;
20623;SDS011;10471;42.736;23.346;2023-06-10T12:16:36;5.90;;;3.70;;
20623;SDS011;10471;42.736;23.346;2023-06-10T12:19:04;4.53;;;3.40;;
20623;SDS011;10471;42.736;23.346;2023-06-10T12:21:31;4.13;;;3.40;;
20623;SDS011;10471;42.736;23.346;2023-06-10T12:26:39;4.50;;;3.37;;
20623;SDS011;10471;42.736;23.346;2023-06-10T12:31:58;3.45;;;2.92;;
20623;SDS011;10471;42.736;23.346;2023-06-10T12:34:31;3.58;;;3.05;;
20623;SDS011;10471;42.736;23.346;2023-06-10T12:36:58;4.35;;;3.50;;
20623;SDS011;10471;42.736;23.346;2023-06-10T12:39:24;3.10;;;2.75;;
20623;SDS011;10471;42.736;23.346;2023-06-10T12:41:49;3.95;;;3.20;;
20623;SDS011;10471;42.736;23.346;2023-06-10T12:44:16;4.18;;;3.17;;
20623;SDS011;10471;42.736;23.346;2023-06-10T12:46:41;3.70;;;3.20;;
20623;SDS011;10471;42.736;23.346;2023-06-10T12:49:07;4.47;;;3.05;;
20623;SDS011;10471;42.736;23.346;2023-06-10T12:51:32;3.65;;;3.00;;
20623;SDS011;10471;42.736;23.346;2023-06-10T12:53:59;4.40;;;3.45;;
20623;SDS011;10471;42.736;23.346;2023-06-10T12:56:25;5.03;;;3.20;;
20623;SDS011;10471;42.736;23.346;2023-06-10T12:58:50;5.13;;;3.93;;
20623;SDS011;10471;42.736;23.346;2023-06-10T13:01:16;4.00;;;3.53;;
20623;SDS011;10471;42.736;23.346;2023-06-10T13:03:41;4.47;;;3.33;;
20623;SDS011;10471;42.736;23.346;2023-06-10T13:06:06;4.97;;;3.67;;
20623;SDS011;10471;42.736;23.346;2023-06-10T13:08:32;5.33;;;3.20;;
20623;SDS011;10471;42.736;23.346;2023-06-10T13:10:57;5.07;;;3.80;;
20623;SDS011;10471;42.736;23.346;2023-06-10T13:13:23;4.80;;;3.60;;
20623;SDS011;10471;42.736;23.346;2023-06-10T13:15:49;5.60;;;3.80;;
20623;SDS011;10471;42.736;23.346;2023-06-10T13:18:15;4.90;;;3.83;;
20623;SDS011;10471;42.736;23.346;2023-06-10T13:20:43;5.53;;;4.17;;
20623;SDS011;10471;42.736;23.346;2023-06-10T13:23:08;7.13;;;4.47;;
20623;SDS011;10471;42.736;23.346;2023-06-10T13:25:34;7.00;;;4.40;;
20623;SDS011;10471;42.736;23.346;2023-06-10T13:27:59;7.23;;;4.77;;
20623;SDS011;10471;42.736;23.346;2023-06-10T13:30:24;6.83;;;5.17;;
20623;SDS011;10471;42.736;23.346;2023-06-10T13:32:51;8.57;;;5.00;;
20623;SDS011;10471;42.736;23.346;2023-06-10T13:35:16;7.93;;;4.63;;
20623;SDS011;10471;42.736;23.346;2023-06-10T13:37:42;7.47;;;4.90;;
20623;SDS011;10471;42.736;23.346;2023-06-10T13:40:07;6.13;;;5.07;;
20623;SDS011;10471;42.736;23.346;2023-06-10T13:42:34;8.33;;;5.77;;
20623;SDS011;10471;42.736;23.346;2023-06-10T13:45:00;11.60;;;5.80;;
20623;SDS011;10471;42.736;23.346;2023-06-10T13:47:26;6.50;;;5.47;;
20623;SDS011;10471;42.736;23.346;2023-06-10T13:49:51;7.33;;;5.30;;
20623;SDS011;10471;42.736;23.346;2023-06-10T13:52:17;9.17;;;5.77;;
20623;SDS011;10471;42.736;23.346;2023-06-10T13:54:42;6.77;;;5.53;;
20623;SDS011;10471;42.736;23.346;2023-06-10T13:57:08;7.73;;;5.10;;
20623;SDS011;10471;42.736;23.346;2023-06-10T13:59:35;8.57;;;5.83;;
20623;SDS011;10471;42.736;23.346;2023-06-10T14:02:00;7.57;;;5.77;;
20623;SDS011;10471;42.736;23.346;2023-06-10T14:04:26;8.07;;;5.43;;
20623;SDS011;10471;42.736;23.346;2023-06-10T14:06:51;9.07;;;5.50;;
20623;SDS011;10471;42.736;23.346;2023-06-10T14:09:17;10.00;;;5.67;;
20623;SDS011;10471;42.736;23.346;2023-06-10T14:11:42;7.37;;;5.90;;
20623;SDS011;10471;42.736;23.346;2023-06-10T14:14:08;7.30;;;5.63;;
20623;SDS011;10471;42.736;23.346;2023-06-10T14:16:34;8.87;;;6.20;;
20623;SDS011;10471;42.736;23.346;2023-06-10T14:18:59;8.57;;;5.93;;
20623;SDS011;10471;42.736;23.346;2023-06-10T14:21:25;8.13;;;6.13;;
20623;SDS011;10471;42.736;23.346;2023-06-10T14:23:51;7.20;;;5.60;;
20623;SDS011;10471;42.736;23.346;2023-06-10T14:26:18;7.77;;;5.77;;
20623;SDS011;10471;42.736;23.346;2023-06-10T14:28:44;9.40;;;5.30;;
20623;SDS011;10471;42.736;23.346;2023-06-10T14:31:09;10.10;;;5.30;;
20623;SDS011;10471;42.736;23.346;2023-06-10T14:33:35;6.47;;;4.93;;
20623;SDS011;10471;42.736;23.346;2023-06-10T14:36:01;7.07;;;4.63;;
20623;SDS011;10471;42.736;23.346;2023-06-10T14:38:27;6.97;;;4.77;;
20623;SDS011;10471;42.736;23.346;2023-06-10T14:40:52;7.90;;;4.50;;
20623;SDS011;10471;42.736;23.346;2023-06-10T14:43:18;7.17;;;4.40;;
20623;SDS011;10471;42.736;23.346;2023-06-10T14:45:43;8.33;;;4.60;;
20623;SDS011;10471;42.736;23.346;2023-06-10T14:48:09;6.33;;;4.87;;